Bookmark and Share
Track history (hours):
 

Min Dong Yu61656

Last reported at 2014-Apr-24 17:00 UTC. Time now 2014-Apr-24 19:34 UTC.
Position N 37°33' E 021°05'.

Length 28 m.

Type: Fishing. MMSI: 412446018.

Water temperature 17.0 ° C

NotesDate/timePositionNaut miles runAvg speedWind from/ knotsBaromVisibWave heightAir tempDewpointWater temp
2014-Apr-24 17:00N 37°33' E 021°05'1 0.6 17.0
2014-Apr-24 15:00N 37°34' E 021°03'0 0.3 17.2
2014-Apr-24 14:00N 37°34' E 021°03'1 0.5 17.2
2014-Apr-24 13:00N 37°34' E 021°02'0 0.4 17.1
2014-Apr-24 12:00N 37°34' E 021°02'1 0.6 17.0
2014-Apr-24 11:00N 37°34' E 021°01'0 0.2 17.0
2014-Apr-24 09:00N 37°34' E 021°01'1 0.8 17.0
2014-Apr-24 08:00N 37°33' E 021°02'1 1.0 16.9
2014-Apr-24 07:00N 37°33' E 021°00'0 0.4 16.9
2014-Apr-24 06:00N 37°32' E 021°01'0 0.0 16.9
2014-Apr-24 05:00N 37°32' E 021°01'0 0.1 16.9
2014-Apr-24 04:00N 37°32' E 021°01'0 0.4 16.9
2014-Apr-24 03:00N 37°32' E 021°01'0 0.1 16.9
2014-Apr-24 01:00N 37°32' E 021°00'0 0.5 16.9
2014-Apr-24 00:00N 37°32' E 020°60'0 0.1 16.9
2014-Apr-23 20:00N 37°31' E 020°59'0 0.5 17.0
2014-Apr-23 19:00N 37°31' E 020°59'0 0.3 17.0
2014-Apr-23 18:00N 37°31' E 020°59'1 0.7 17.0
2014-Apr-23 16:00N 37°30' E 020°60'1 1.2 17.0
2014-Apr-23 15:00N 37°29' E 020°59'1 0.9 17.0
2014-Apr-23 14:00N 37°28' E 020°58'0 0.3 17.0
2014-Apr-23 13:00N 37°28' E 020°58'1 0.8 17.0
2014-Apr-23 12:00N 37°27' E 020°58'0 0.0 17.0
2014-Apr-23 11:00N 37°27' E 020°58'2 0.9 17.0
2014-Apr-23 09:00N 37°25' E 020°58'3 1.3 17.0
2014-Apr-23 07:00N 37°23' E 020°60'0 0.2 17.1
2014-Apr-23 05:00N 37°22' E 021°00'1 1.3 17.1
2014-Apr-23 04:00N 37°22' E 021°02'0 0.5 17.1
2014-Apr-23 03:00N 37°22' E 021°01'0 0.1 17.1
2014-Apr-23 01:00N 37°21' E 021°01'0 0.5 17.2
2014-Apr-23 00:00N 37°21' E 021°02'2 0.7 17.2
2014-Apr-22 21:00N 37°22' E 021°04'0 0.4 17.4
2014-Apr-22 20:00N 37°22' E 021°04'0 0.2 17.5
2014-Apr-22 19:00N 37°23' E 021°04'0 0.2 17.5
2014-Apr-22 18:00N 37°23' E 021°04'1 0.5 17.6
2014-Apr-22 16:00N 37°23' E 021°05'0 0.1 17.7
2014-Apr-22 14:00N 37°23' E 021°05'1 0.6 18.2
2014-Apr-22 13:00N 37°23' E 021°04'0 0.3 18.2
2014-Apr-22 12:00N 37°22' E 021°04'0 0.0 18.1
2014-Apr-22 11:00N 37°22' E 021°04'2 0.8 17.7
2014-Apr-22 09:00N 37°21' E 021°05'0 0.2 17.9
2014-Apr-22 08:00N 37°21' E 021°06'2 0.5 17.5
2014-Apr-22 04:00N 37°20' E 021°08'0 0.5 16.8
2014-Apr-22 03:00N 37°21' E 021°09'0 0.2 16.9
2014-Apr-22 02:00N 37°21' E 021°09'0 0.3 16.9
2014-Apr-22 01:00N 37°21' E 021°08'0 0.0 16.9
2014-Apr-22 00:00N 37°21' E 021°08'0 0.0 16.9
2014-Apr-21 23:00N 37°21' E 021°08'2 0.6 16.9
2014-Apr-21 20:00N 37°19' E 021°07'1 0.7 16.9
2014-Apr-21 19:00N 37°19' E 021°07'1 1.1 16.9
2014-Apr-21 18:00N 37°18' E 021°07'1 1.0 17.0
2014-Apr-21 17:00N 37°17' E 021°08'1 0.9 17.0
2014-Apr-21 16:00N 37°16' E 021°08'1 1.1 17.0
2014-Apr-21 15:00N 37°15' E 021°08'2 0.8 17.0
2014-Apr-21 13:00N 37°14' E 021°07'0 0.0 17.0
2014-Apr-21 12:00N 37°14' E 021°07'4 1.8 17.0
2014-Apr-21 10:00N 37°10' E 021°09'0 0.2 17.0
2014-Apr-21 09:00N 37°10' E 021°09'1 0.8 17.0
2014-Apr-21 08:00N 37°09' E 021°10'2 1.6 17.0
2014-Apr-21 07:00N 37°08' E 021°10'0 0.0 17.0
2014-Apr-21 06:00N 37°08' E 021°10'1 0.7 16.9
2014-Apr-21 05:00N 37°09' E 021°10'1 1.0 16.9
2014-Apr-21 04:00N 37°08' E 021°11'1 0.5 16.9
2014-Apr-21 03:00N 37°07' E 021°11'0 0.1 16.9
2014-Apr-21 01:00N 37°07' E 021°11'1 0.8 16.9
2014-Apr-21 00:00N 37°07' E 021°12'0 0.0 16.9
2014-Apr-20 21:00N 37°07' E 021°12'1 0.7 16.9
2014-Apr-20 20:00N 37°06' E 021°12'1 0.7 16.9
2014-Apr-20 19:00N 37°05' E 021°12'0 0.2 16.9
2014-Apr-20 16:00N 37°05' E 021°11'1 1.0 17.0
2014-Apr-20 15:00N 37°04' E 021°11'1 0.8 17.0
2014-Apr-20 14:00N 37°03' E 021°11'0 0.0 17.0
2014-Apr-20 13:00N 37°03' E 021°11'0 0.3 17.0
2014-Apr-20 12:00N 37°03' E 021°11'1 0.9 17.0
2014-Apr-20 11:00N 37°02' E 021°10'0 0.3 17.0
2014-Apr-20 10:00N 37°02' E 021°10'0 0.2 17.0
2014-Apr-20 09:00N 37°02' E 021°10'0 0.3 17.0
2014-Apr-20 08:00N 37°02' E 021°10'2 1.5 16.9
2014-Apr-20 07:00N 37°01' E 021°09'1 0.5 16.9
2014-Apr-20 05:00N 37°01' E 021°10'0 0.0 16.9
2014-Apr-20 04:00N 37°01' E 021°10'0 0.2 16.9
2014-Apr-20 03:00N 37°01' E 021°10'0 0.1 16.9
2014-Apr-20 02:00N 37°01' E 021°10'0 0.1 16.9
2014-Apr-20 00:00N 37°01' E 021°09'1 0.4 16.9
2014-Apr-19 21:00N 37°01' E 021°08'1 0.7 16.9
2014-Apr-19 20:00N 37°01' E 021°07'0 0.3 16.9
2014-Apr-19 19:00N 37°01' E 021°07'2 2.1 16.9
2014-Apr-19 18:00N 37°03' E 021°06'1 1.2 16.9
2014-Apr-19 17:00N 37°02' E 021°06'2 0.9 16.9
2014-Apr-19 15:00N 37°02' E 021°04'0 0.1 16.9
2014-Apr-19 13:00N 37°02' E 021°04'0 0.3 16.9
2014-Apr-19 12:00N 37°02' E 021°03'1 0.6 16.9
2014-Apr-19 10:00N 37°02' E 021°02'0 0.2 16.9
2014-Apr-19 08:00N 37°02' E 021°02'2 1.9 16.8
2014-Apr-19 07:00N 37°02' E 020°59'0 0.0 16.8
2014-Apr-19 06:00N 37°02' E 020°59'0 0.1 16.8
2014-Apr-19 04:00N 37°02' E 020°60'0 0.0 16.8
2014-Apr-19 03:00N 37°02' E 020°60'1 1.0 16.8
2014-Apr-19 02:00N 37°03' E 020°58'0 0.0 16.8
2014-Apr-19 01:00N 37°03' E 020°58'3 3.2 16.8
2014-Apr-19 00:00N 37°03' E 020°55'0 0.0 16.8
2014-Apr-18 23:00N 37°03' E 020°55'0 0.1 16.8
2014-Apr-18 20:00N 37°04' E 020°54'1 1.0 16.9
2014-Apr-18 19:00N 37°03' E 020°53'1 0.5 16.9
2014-Apr-18 18:00N 37°03' E 020°53'0 0.0 16.9
2014-Apr-18 16:00N 37°03' E 020°53'1 0.8 16.9
2014-Apr-18 15:00N 37°04' E 020°52'1 0.3 16.9
2014-Apr-18 13:00N 37°04' E 020°51'0 0.4 16.9
2014-Apr-18 12:00N 37°04' E 020°51'1 0.6 16.8
2014-Apr-18 10:00N 37°05' E 020°50'0 0.2 16.8
2014-Apr-18 09:00N 37°05' E 020°50'2 1.2 16.8
2014-Apr-18 07:00N 37°06' E 020°48'0 0.0 16.8
2014-Apr-18 05:00N 37°06' E 020°48'1 1.0 16.8
2014-Apr-18 04:00N 37°07' E 020°48'1 1.1 16.8
2014-Apr-18 03:00N 37°08' E 020°47'1 1.4 16.8
2014-Apr-18 02:00N 37°08' E 020°45'0 0.0 16.9
2014-Apr-18 01:00N 37°08' E 020°45'0 0.0 16.9
2014-Apr-18 00:00N 37°08' E 020°45'2 1.7 16.9
2014-Apr-17 23:00N 37°10' E 020°44'0 0.0 16.9
2014-Apr-17 22:00N 37°10' E 020°44'0 0.0 16.9
2014-Apr-17 21:00N 37°10' E 020°44'0 0.2 16.9
2014-Apr-17 20:00N 37°09' E 020°44'0 0.3 16.9
2014-Apr-17 19:00N 37°09' E 020°43'0 0.4 17.0
2014-Apr-17 18:00N 37°10' E 020°43'0 0.1 17.0
2014-Apr-17 17:00N 37°10' E 020°43'1 0.2 17.0
2014-Apr-17 14:00N 37°10' E 020°43'1 0.9 17.1
2014-Apr-17 13:00N 37°11' E 020°43'0 0.1 17.1
2014-Apr-17 12:00N 37°11' E 020°43'1 1.5 17.1
2014-Apr-17 11:00N 37°13' E 020°43'1 1.0 17.1
2014-Apr-17 10:00N 37°14' E 020°42'0 0.1 17.0
2014-Apr-17 09:00N 37°14' E 020°42'2 1.2 17.0
2014-Apr-17 07:00N 37°15' E 020°40'0 0.1 17.0
2014-Apr-17 05:00N 37°15' E 020°40'0 0.4 16.9
2014-Apr-17 04:00N 37°15' E 020°39'1 1.0 16.9
2014-Apr-17 03:00N 37°16' E 020°38'0 0.0 16.9
2014-Apr-17 02:00N 37°16' E 020°38'0 0.2 16.9
2014-Apr-17 01:00N 37°16' E 020°38'1 0.6 16.9
2014-Apr-17 00:00N 37°16' E 020°37'1 0.2 17.0
2014-Apr-16 20:00N 37°17' E 020°38'0 0.4 17.0
2014-Apr-16 19:00N 37°17' E 020°38'2 1.7 17.1
2014-Apr-16 18:00N 37°19' E 020°38'0 0.0 17.1
2014-Apr-16 17:00N 37°19' E 020°38'1 1.1 17.1
2014-Apr-16 16:00N 37°20' E 020°38'2 0.8 17.1
2014-Apr-16 14:00N 37°22' E 020°38'1 0.7 17.0
2014-Apr-16 12:00N 37°23' E 020°37'0 0.0 17.0
2014-Apr-16 11:00N 37°23' E 020°37'1 0.5 17.0
2014-Apr-16 09:00N 37°24' E 020°36'2 0.8 17.0
2014-Apr-16 06:00N 37°23' E 020°33'1 0.3 17.2
2014-Apr-16 04:00N 37°23' E 020°32'1 1.4 17.1
2014-Apr-16 03:00N 37°22' E 020°31'2 0.8 17.1
2014-Apr-16 01:00N 37°22' E 020°29'2 1.6 17.1
2014-Apr-16 00:00N 37°22' E 020°31'2 1.6 17.1
2014-Apr-15 23:00N 37°22' E 020°29'0 0.0 17.1
2014-Apr-15 21:00N 37°22' E 020°29'1 1.0 17.2
2014-Apr-15 20:00N 37°23' E 020°28'0 0.1 17.2
2014-Apr-15 19:00N 37°23' E 020°27'2 1.6 17.3
2014-Apr-15 18:00N 37°23' E 020°25'0 0.0 17.4
2014-Apr-15 17:00N 37°23' E 020°25'0 0.0 17.4
2014-Apr-15 16:00N 37°23' E 020°25'0 0.1 17.4
2014-Apr-15 15:00N 37°22' E 020°25'0 0.2 17.5
2014-Apr-15 14:00N 37°22' E 020°25'0 0.4 17.6
2014-Apr-15 13:00N 37°22' E 020°25'1 0.8 17.6
2014-Apr-15 12:00N 37°22' E 020°24'0 0.1 17.7
2014-Apr-15 11:00N 37°22' E 020°24'0 0.2 17.7
2014-Apr-15 09:00N 37°23' E 020°23'1 0.7 17.4
2014-Apr-15 08:00N 37°23' E 020°23'1 0.7 17.3
2014-Apr-15 07:00N 37°23' E 020°22'0 0.0 17.2
2014-Apr-15 06:00N 37°23' E 020°22'0 0.0 17.2
2014-Apr-15 05:00N 37°23' E 020°22'0 0.4 17.2
2014-Apr-15 04:00N 37°24' E 020°22'0 0.3 17.2
2014-Apr-15 03:00N 37°24' E 020°21'2 0.2 17.3
2014-Apr-14 19:00N 37°24' E 020°19'0 0.3 17.6
2014-Apr-14 18:00N 37°24' E 020°20'0 0.1 17.7
2014-Apr-14 17:00N 37°24' E 020°20'   17.8

Dump ship's entire track history

sailing weather and tide predictions

Buoy 61656